createdAt,value
2023-02-12T00:01:12.719Z,22.33
2023-02-12T00:03:15.743Z,25.08
2023-02-12T00:05:18.835Z,22.33
2023-02-12T00:07:21.794Z,28.40
2023-02-12T00:09:24.753Z,23.00
2023-02-12T00:11:29.377Z,25.95
2023-02-12T00:13:32.234Z,29.45
2023-02-12T00:15:39.622Z,22.33
2023-02-12T00:17:42.597Z,22.58
2023-02-12T00:19:45.553Z,27.88
2023-02-12T00:21:48.753Z,30.73
2023-02-12T00:23:51.594Z,25.00
2023-02-12T00:25:55.026Z,27.60
2023-02-12T00:27:58.163Z,26.85
2023-02-12T00:30:01.832Z,25.70
2023-02-12T00:32:06.393Z,25.20
2023-02-12T00:34:11.809Z,26.23
2023-02-12T00:36:18.872Z,26.85
2023-02-12T00:38:21.914Z,25.67
2023-02-12T00:40:24.836Z,26.00
2023-02-12T00:42:27.801Z,30.48
2023-02-12T00:44:32.286Z,26.52
2023-02-12T00:46:35.343Z,25.83
2023-02-12T00:48:39.819Z,26.30
2023-02-12T00:50:45.233Z,27.42
2023-02-12T00:52:48.134Z,28.25
2023-02-12T00:54:52.552Z,26.70
2023-02-12T00:56:56.232Z,29.83
2023-02-12T00:59:00.094Z,29.73
2023-02-12T01:01:03.076Z,28.33
2023-02-12T01:03:06.110Z,26.65
2023-02-12T01:05:10.682Z,29.85
2023-02-12T01:07:13.723Z,30.70
2023-02-12T01:09:16.600Z,26.85
2023-02-12T01:11:20.282Z,31.08
2023-02-12T01:13:26.034Z,29.95
2023-02-12T01:15:28.996Z,31.42
2023-02-12T01:17:31.876Z,31.33
2023-02-12T01:19:34.961Z,32.00
2023-02-12T01:21:39.438Z,33.50
2023-02-12T01:23:43.237Z,33.97
2023-02-12T01:25:46.177Z,30.30
2023-02-12T01:27:49.321Z,29.50
2023-02-12T01:29:52.411Z,30.10
2023-02-12T01:31:57.301Z,29.50
2023-02-12T01:34:01.598Z,30.10
2023-02-12T01:36:05.117Z,27.55
2023-02-12T01:38:09.479Z,32.25
2023-02-12T01:40:18.117Z,29.20
2023-02-12T01:42:22.037Z,31.65
2023-02-12T01:44:28.803Z,28.90
2023-02-12T01:46:31.738Z,30.30
2023-02-12T01:48:40.089Z,32.45
2023-02-12T01:50:46.088Z,29.35
2023-02-12T01:52:54.757Z,30.38
2023-02-12T01:55:02.916Z,33.90
2023-02-12T01:57:08.837Z,27.90
2023-02-12T01:59:13.403Z,32.63
2023-02-12T02:01:20.652Z,30.85
2023-02-12T02:03:23.967Z,36.47
2023-02-12T02:05:35.654Z,29.20
2023-02-12T02:07:38.648Z,32.38
2023-02-12T02:09:42.841Z,37.08
2023-02-12T02:12:05.796Z,33.30
2023-02-12T02:14:27.484Z,33.20
2023-02-12T02:16:34.819Z,33.50
2023-02-12T02:18:44.795Z,33.30
2023-02-12T02:21:26.302Z,34.38
2023-02-12T02:23:58.153Z,29.05
2023-02-12T02:26:39.356Z,33.58
2023-02-12T02:29:05.382Z,37.63
2023-02-12T02:31:18.138Z,32.05
2023-02-12T02:33:33.085Z,36.72
2023-02-12T02:35:45.874Z,35.50
2023-02-12T02:37:51.956Z,38.42
2023-02-12T02:39:59.473Z,41.38
2023-02-12T02:42:09.642Z,33.60
2023-02-12T02:44:18.833Z,33.67
2023-02-12T02:46:30.839Z,35.13
2023-02-12T02:48:37.233Z,36.00
2023-02-12T02:50:46.752Z,32.72
2023-02-12T02:52:52.706Z,34.70
2023-02-12T02:55:01.192Z,31.02
2023-02-12T02:57:09.315Z,32.78
2023-02-12T02:59:16.370Z,33.28
2023-02-12T03:01:24.915Z,34.60
2023-02-12T03:03:32.833Z,36.92
2023-02-12T03:05:39.772Z,37.42
2023-02-12T03:07:46.912Z,40.72
2023-02-12T03:09:54.133Z,37.95
2023-02-12T03:12:03.380Z,39.75
2023-02-12T03:14:13.903Z,32.95
2023-02-12T03:16:20.917Z,33.63
2023-02-12T03:18:29.544Z,32.22
2023-02-12T03:20:36.953Z,33.20
2023-02-12T03:22:43.994Z,34.70
2023-02-12T03:24:51.481Z,37.45
2023-02-12T03:27:00.388Z,35.45
2023-02-12T03:29:03.522Z,34.42
2023-02-12T03:31:13.433Z,35.83
2023-02-12T03:33:24.081Z,34.78
2023-02-12T03:35:34.967Z,32.47
2023-02-12T03:37:41.318Z,31.05
2023-02-12T03:39:54.200Z,32.15
2023-02-12T03:42:03.011Z,36.00
2023-02-12T03:44:15.717Z,32.83
2023-02-12T03:46:24.860Z,29.58
2023-02-12T03:48:32.558Z,32.78
2023-02-12T03:50:44.404Z,34.15
2023-02-12T03:52:48.183Z,31.17
2023-02-12T03:54:51.595Z,30.80
2023-02-12T03:56:59.985Z,32.40
2023-02-12T03:59:04.354Z,33.30
2023-02-12T04:01:07.755Z,32.00
2023-02-12T04:03:11.086Z,30.77
2023-02-12T04:05:19.592Z,30.88
2023-02-12T04:07:24.192Z,30.30
2023-02-12T04:09:28.615Z,32.83
2023-02-12T04:11:39.550Z,26.25
2023-02-12T04:13:50.955Z,29.30
2023-02-12T04:16:07.881Z,28.52
2023-02-12T04:18:16.749Z,26.92
2023-02-12T04:20:31.192Z,29.02
2023-02-12T04:22:50.195Z,28.63
2023-02-12T04:25:07.102Z,30.02
2023-02-12T04:27:14.950Z,26.20
2023-02-12T04:29:26.994Z,30.40
2023-02-12T04:31:33.987Z,33.72
2023-02-12T04:33:44.634Z,27.73
2023-02-12T04:35:51.833Z,32.83
2023-02-12T04:38:02.355Z,30.45
2023-02-12T04:40:07.745Z,26.95
2023-02-12T04:42:11.117Z,28.10
2023-02-12T04:44:15.777Z,29.38
2023-02-12T04:46:18.834Z,34.03
2023-02-12T04:48:22.516Z,26.05
2023-02-12T04:50:25.918Z,27.60
2023-02-12T04:52:28.924Z,32.45
2023-02-12T04:54:33.556Z,32.83
2023-02-12T04:56:36.563Z,29.77
2023-02-12T04:58:39.715Z,36.38
2023-02-12T05:00:42.594Z,32.47
2023-02-12T05:02:45.615Z,34.80
2023-02-12T05:04:49.810Z,33.83
2023-02-12T05:06:52.710Z,26.98
2023-02-12T05:08:55.738Z,29.15
2023-02-12T05:11:04.796Z,29.58
2023-02-12T05:13:07.779Z,27.58
2023-02-12T05:15:11.198Z,25.60
2023-02-12T05:17:14.121Z,30.80
2023-02-12T05:19:17.096Z,31.33
2023-02-12T05:21:20.001Z,35.72
2023-02-12T05:23:22.955Z,35.25
2023-02-12T05:25:25.713Z,35.63
2023-02-12T05:27:30.436Z,37.63
2023-02-12T05:29:33.524Z,43.97
2023-02-12T05:31:36.558Z,36.60
2023-02-12T05:33:39.676Z,34.38
2023-02-12T05:35:43.008Z,34.63
2023-02-12T05:37:45.796Z,38.90
2023-02-12T05:39:50.575Z,35.92
2023-02-12T05:41:53.540Z,35.47
2023-02-12T05:43:57.983Z,32.90
2023-02-12T05:46:01.501Z,32.67
2023-02-12T05:48:04.953Z,33.03
2023-02-12T05:50:09.046Z,34.28
2023-02-12T05:52:11.953Z,35.85
2023-02-12T05:54:14.832Z,31.65
2023-02-12T05:56:19.673Z,31.38
2023-02-12T05:58:22.675Z,33.45
2023-02-12T06:00:27.475Z,33.40
2023-02-12T06:02:30.451Z,34.13
2023-02-12T06:04:33.391Z,34.80
2023-02-12T06:06:36.539Z,31.27
2023-02-12T06:08:40.137Z,30.67
2023-02-12T06:10:43.311Z,34.65
2023-02-12T06:12:46.276Z,30.80
2023-02-12T06:14:49.131Z,26.85
2023-02-12T06:16:54.151Z,28.65
2023-02-12T06:18:57.773Z,29.20
2023-02-12T06:21:00.671Z,25.33
2023-02-12T06:23:03.552Z,30.20
2023-02-12T06:25:07.429Z,26.70
2023-02-12T06:27:10.548Z,24.27
2023-02-12T06:29:13.717Z,29.63
2023-02-12T06:31:20.149Z,31.33
2023-02-12T06:33:24.799Z,31.98
2023-02-12T06:35:27.755Z,24.38
2023-02-12T06:37:30.756Z,22.80
2023-02-12T06:39:33.615Z,24.05
2023-02-12T06:41:36.557Z,21.98
2023-02-12T06:43:39.481Z,21.63
2023-02-12T06:45:42.555Z,20.58
2023-02-12T06:47:45.717Z,25.40
2023-02-12T06:49:50.438Z,25.17
2023-02-12T06:51:53.526Z,22.17
2023-02-12T06:53:57.361Z,25.55
2023-02-12T06:56:01.488Z,26.95
2023-02-12T06:58:04.557Z,35.20
2023-02-12T07:00:08.733Z,31.98
2023-02-12T07:02:12.237Z,33.20
2023-02-12T07:04:15.261Z,28.67
2023-02-12T07:06:20.283Z,32.05
2023-02-12T07:08:23.236Z,31.08
2023-02-12T07:10:26.289Z,29.00
2023-02-12T07:12:29.257Z,30.17
2023-02-12T07:14:32.158Z,48.28
2023-02-12T07:16:35.269Z,45.78
2023-02-12T07:18:39.188Z,47.60
2023-02-12T07:20:42.036Z,43.65
2023-02-12T07:22:46.557Z,46.13
2023-02-12T07:24:49.638Z,41.63
2023-02-12T07:26:52.556Z,42.05
2023-02-12T07:28:57.074Z,41.20
2023-02-12T07:31:00.207Z,32.50
2023-02-12T07:33:04.351Z,33.65
2023-02-12T07:35:08.635Z,37.60
2023-02-12T07:37:11.396Z,29.65
2023-02-12T07:39:15.945Z,43.17
2023-02-12T07:41:20.656Z,30.95
2023-02-12T07:43:23.802Z,30.65
2023-02-12T07:45:26.776Z,36.13
2023-02-12T07:47:29.934Z,38.90
2023-02-12T07:49:32.836Z,42.45
2023-02-12T07:51:36.897Z,38.60
2023-02-12T07:53:40.029Z,45.92
2023-02-12T07:55:44.396Z,44.50
2023-02-12T07:57:47.240Z,54.60
2023-02-12T07:59:50.157Z,53.58
2023-02-12T08:01:53.826Z,61.70
2023-02-12T08:03:59.864Z,49.00
2023-02-12T08:06:08.623Z,70.32
2023-02-12T08:08:11.553Z,67.10
2023-02-12T08:10:15.222Z,62.30
2023-02-12T08:12:19.886Z,71.25
2023-02-12T08:14:23.517Z,62.63
2023-02-12T08:16:28.373Z,61.10
2023-02-12T08:18:32.202Z,56.67
2023-02-12T08:20:35.140Z,52.88
2023-02-12T08:22:38.017Z,47.22
2023-02-12T08:24:40.926Z,40.00
2023-02-12T08:26:44.637Z,39.67
2023-02-12T08:28:50.926Z,41.30
2023-02-12T08:30:53.795Z,41.97
2023-02-12T08:32:56.884Z,47.38
2023-02-12T08:34:59.837Z,43.90
2023-02-12T08:37:05.596Z,37.85
2023-02-12T08:41:13.519Z,34.95
2023-02-12T08:43:16.427Z,30.08
2023-02-12T08:45:20.838Z,32.45
2023-02-12T08:47:23.745Z,31.75
2023-02-12T08:49:28.598Z,32.80
2023-02-12T08:51:32.958Z,29.27
2023-02-12T08:53:36.197Z,31.70
2023-02-12T08:55:39.091Z,26.27
2023-02-12T08:57:43.121Z,29.85
2023-02-12T08:59:46.180Z,31.15
2023-02-12T09:01:51.431Z,31.83
2023-02-12T09:03:54.430Z,29.70
2023-02-12T09:05:57.873Z,33.58
2023-02-12T09:08:00.993Z,34.33
2023-02-12T09:10:04.085Z,31.67
2023-02-12T09:12:06.986Z,42.35
2023-02-12T09:14:13.432Z,30.60
2023-02-12T09:16:16.668Z,30.98
2023-02-12T09:18:21.140Z,37.75
2023-02-12T09:20:24.369Z,31.23
2023-02-12T09:22:27.496Z,30.33
2023-02-12T09:24:30.441Z,26.52
2023-02-12T09:26:33.549Z,26.38
2023-02-12T09:28:38.295Z,27.30
2023-02-12T09:30:41.937Z,26.27
2023-02-12T09:32:45.080Z,26.52
2023-02-12T09:34:49.554Z,24.75
2023-02-12T09:36:52.526Z,26.80
2023-02-12T09:38:55.791Z,28.08
2023-02-12T09:41:13.496Z,27.52
2023-02-12T09:43:20.550Z,20.77
2023-02-12T09:45:27.452Z,24.30
2023-02-12T09:47:36.596Z,22.92
2023-02-12T09:49:52.891Z,21.70
2023-02-12T09:51:56.671Z,18.17
2023-02-12T09:54:05.648Z,19.45
2023-02-12T09:56:14.486Z,25.50
2023-02-12T09:58:22.635Z,23.10
2023-02-12T10:00:29.196Z,21.17
2023-02-12T10:02:32.066Z,24.73
2023-02-12T10:04:35.007Z,22.83
2023-02-12T10:06:48.997Z,19.27
2023-02-12T10:09:08.638Z,18.10
2023-02-12T10:11:36.917Z,20.75
2023-02-12T10:13:49.997Z,24.08
2023-02-12T10:16:01.692Z,25.25
2023-02-12T10:18:26.558Z,23.52
2023-02-12T10:20:56.541Z,20.63
2023-02-12T10:23:13.364Z,22.45
2023-02-12T10:25:26.519Z,24.52
2023-02-12T10:27:38.605Z,20.73
2023-02-12T10:29:44.128Z,25.08
2023-02-12T10:33:54.524Z,20.05
2023-02-12T10:36:04.355Z,20.90
2023-02-12T10:38:16.764Z,29.35
2023-02-12T10:40:23.674Z,19.52
2023-02-12T10:42:37.172Z,17.35
2023-02-12T10:44:40.557Z,27.17
2023-02-12T10:46:43.502Z,17.98
2023-02-12T10:48:50.162Z,25.65
2023-02-12T10:51:04.601Z,25.77
2023-02-12T10:53:17.151Z,16.35
2023-02-12T10:55:29.058Z,19.02
2023-02-12T10:57:33.501Z,18.40
2023-02-12T10:59:36.932Z,27.23
2023-02-12T11:01:42.367Z,21.15
2023-02-12T11:03:45.352Z,23.67
2023-02-12T11:05:48.761Z,25.13
2023-02-12T11:07:52.920Z,19.88
2023-02-12T11:09:58.197Z,20.05
2023-02-12T11:12:01.238Z,23.70
2023-02-12T11:14:06.523Z,14.98
2023-02-12T11:16:12.760Z,22.90
2023-02-12T11:18:23.671Z,27.10
2023-02-12T11:20:29.274Z,27.70
2023-02-12T11:22:32.511Z,23.30
2023-02-12T11:24:37.194Z,20.45
2023-02-12T11:26:42.803Z,21.53
2023-02-12T11:28:54.880Z,25.40
2023-02-12T11:31:00.219Z,24.92
2023-02-12T11:33:17.196Z,21.60
2023-02-12T11:35:25.883Z,26.45
2023-02-12T11:37:28.802Z,26.17
2023-02-12T11:39:34.831Z,27.90
2023-02-12T11:41:41.394Z,27.25
2023-02-12T11:43:45.575Z,28.27
2023-02-12T11:45:53.053Z,33.25
2023-02-12T11:47:56.050Z,30.50
2023-02-12T11:50:09.484Z,31.85
2023-02-12T11:52:21.957Z,34.10
2023-02-12T11:54:27.704Z,30.73
2023-02-12T11:56:44.240Z,27.13
2023-02-12T11:58:47.796Z,28.33
2023-02-12T12:00:58.033Z,27.88
2023-02-12T12:03:07.753Z,29.77
2023-02-12T12:05:16.073Z,27.02
2023-02-12T12:07:25.479Z,30.60
2023-02-12T12:09:35.478Z,31.33
2023-02-12T12:11:47.555Z,29.40
2023-02-12T12:13:57.117Z,34.72
2023-02-12T12:16:28.471Z,27.08
2023-02-12T12:19:00.962Z,28.48
2023-02-12T12:21:10.193Z,28.35
2023-02-12T12:23:19.149Z,26.77
2023-02-12T12:25:26.561Z,30.92
2023-02-12T12:27:59.169Z,27.25
2023-02-12T12:30:07.577Z,23.33
2023-02-12T12:32:14.797Z,29.80
2023-02-12T12:34:20.675Z,32.78
2023-02-12T12:37:02.843Z,28.10
2023-02-12T12:39:20.032Z,27.42
2023-02-12T12:41:30.994Z,30.25
2023-02-12T12:43:47.116Z,32.88
2023-02-12T12:46:23.032Z,38.58
2023-02-12T12:48:38.232Z,26.55
2023-02-12T12:50:57.519Z,29.20
2023-02-12T12:53:19.281Z,28.00
2023-02-12T12:55:36.722Z,40.40
2023-02-12T12:57:52.564Z,33.97
2023-02-12T13:00:21.127Z,33.47
2023-02-12T13:03:20.913Z,29.58
2023-02-12T13:05:55.345Z,31.92
2023-02-12T13:08:07.599Z,28.25
2023-02-12T13:10:23.914Z,42.38
2023-02-12T13:12:48.114Z,31.17
2023-02-12T13:14:59.696Z,33.30
2023-02-12T13:17:11.056Z,33.60
2023-02-12T13:19:23.276Z,28.92
2023-02-12T13:21:42.143Z,25.27
2023-02-12T13:23:52.547Z,43.20
2023-02-12T13:26:05.857Z,39.03
2023-02-12T13:28:15.123Z,35.13
2023-02-12T13:30:22.531Z,38.90
2023-02-12T13:32:30.739Z,33.28
2023-02-12T13:34:37.157Z,34.65
2023-02-12T13:36:42.197Z,32.25
2023-02-12T13:38:48.987Z,35.25
2023-02-12T13:40:57.080Z,33.63
2023-02-12T13:43:12.157Z,33.20
2023-02-12T13:45:27.956Z,38.10
2023-02-12T13:47:43.715Z,38.83
2023-02-12T13:49:54.797Z,33.17
2023-02-12T13:52:07.106Z,35.67
2023-02-12T13:54:26.642Z,37.72
2023-02-12T13:56:38.407Z,38.95
2023-02-12T13:58:49.531Z,32.65
2023-02-12T14:00:59.928Z,38.28
2023-02-12T14:03:09.764Z,40.15
2023-02-12T14:05:31.526Z,39.25
2023-02-12T14:07:52.865Z,35.78
2023-02-12T14:10:04.875Z,38.25
2023-02-12T14:12:12.504Z,37.83
2023-02-12T14:14:27.385Z,32.90
2023-02-12T14:16:40.190Z,34.88
2023-02-12T14:18:44.684Z,30.00
2023-02-12T14:20:47.522Z,25.50
2023-02-12T14:23:33.440Z,31.40
2023-02-12T14:25:44.374Z,26.35
2023-02-12T14:27:48.950Z,26.55
2023-02-12T14:30:19.260Z,29.08
2023-02-12T14:33:09.472Z,31.58
2023-02-12T14:35:36.292Z,38.80
2023-02-12T14:39:42.343Z,43.83
2023-02-12T14:41:46.224Z,43.53
2023-02-12T14:44:01.674Z,64.97
2023-02-12T14:46:46.605Z,62.83
2023-02-12T14:48:54.050Z,41.70
2023-02-12T14:51:02.681Z,31.83
2023-02-12T14:53:16.781Z,54.83
2023-02-12T14:55:23.833Z,59.95
2023-02-12T14:57:30.711Z,56.33
2023-02-12T14:59:39.481Z,54.13
2023-02-12T15:01:43.919Z,37.90
2023-02-12T15:03:49.755Z,48.90
2023-02-12T15:06:01.700Z,43.83
2023-02-12T15:08:12.380Z,37.45
2023-02-12T15:10:18.912Z,40.63
2023-02-12T15:12:27.083Z,35.70
2023-02-12T15:14:32.869Z,35.30
2023-02-12T15:16:45.878Z,34.67
2023-02-12T15:18:54.725Z,55.75
2023-02-12T15:21:07.320Z,56.38
2023-02-12T15:23:32.800Z,45.58
2023-02-12T15:25:35.880Z,37.83
2023-02-12T15:27:43.004Z,38.53
2023-02-12T15:29:49.087Z,57.00
2023-02-12T15:31:54.663Z,42.70
2023-02-12T15:36:04.482Z,55.42
2023-02-12T15:38:08.538Z,55.05
2023-02-12T15:40:16.364Z,60.47
2023-02-12T15:42:28.009Z,57.20
2023-02-12T15:44:33.262Z,81.10
2023-02-12T15:46:36.333Z,64.35
2023-02-12T15:48:39.971Z,94.90
2023-02-12T15:50:51.122Z,91.25
2023-02-12T15:52:56.973Z,86.25
2023-02-12T15:54:59.919Z,67.43
2023-02-12T15:57:11.225Z,57.35
2023-02-12T15:59:20.434Z,39.85
2023-02-12T16:01:25.568Z,72.13
2023-02-12T16:03:32.133Z,66.32
2023-02-12T16:05:35.589Z,67.10
2023-02-12T16:07:39.849Z,61.15
2023-02-12T16:09:46.159Z,64.82
2023-02-12T16:11:49.471Z,65.72
2023-02-12T16:13:56.125Z,65.85
2023-02-12T16:16:09.024Z,52.70
2023-02-12T16:18:25.234Z,38.88
2023-02-12T16:22:34.673Z,37.25
2023-02-12T16:24:50.914Z,42.92
2023-02-12T16:26:56.273Z,49.55
2023-02-12T16:28:59.433Z,36.47
2023-02-12T16:31:11.362Z,50.88
2023-02-12T16:33:33.353Z,37.33
2023-02-12T16:35:36.517Z,39.83
2023-02-12T16:37:48.921Z,42.22
2023-02-12T16:40:30.204Z,34.20
2023-02-12T16:42:35.154Z,41.45
2023-02-12T16:44:38.233Z,34.17
2023-02-12T16:46:49.475Z,36.25
2023-02-12T16:48:54.834Z,37.17
2023-02-12T16:50:58.921Z,43.25
2023-02-12T16:53:03.950Z,43.25
2023-02-12T16:55:13.363Z,39.60
2023-02-12T16:57:16.197Z,36.33
2023-02-12T16:59:20.665Z,33.78
2023-02-12T17:01:25.937Z,34.67
2023-02-12T17:03:29.029Z,31.83
2023-02-12T17:05:31.902Z,31.80
2023-02-12T17:07:35.284Z,31.95
2023-02-12T17:09:38.013Z,31.65
2023-02-12T17:11:42.547Z,29.52
2023-02-12T17:13:45.955Z,28.77
2023-02-12T17:15:54.329Z,34.60
2023-02-12T17:17:57.414Z,34.13
2023-02-12T17:20:00.216Z,38.40
2023-02-12T17:22:04.273Z,30.83
2023-02-12T17:24:09.945Z,37.58
2023-02-12T17:28:16.068Z,32.60
2023-02-12T17:30:29.221Z,28.70
2023-02-12T17:32:33.718Z,29.45
2023-02-12T17:34:48.348Z,29.38
2023-02-12T17:36:52.645Z,31.67
2023-02-12T17:38:55.436Z,34.17
2023-02-12T17:40:58.959Z,34.60
2023-02-12T17:43:01.979Z,29.52
2023-02-12T17:45:05.461Z,33.75
2023-02-12T17:47:08.678Z,34.83
2023-02-12T17:49:13.587Z,31.88
2023-02-12T17:51:16.761Z,28.33
2023-02-12T17:53:20.037Z,32.42
2023-02-12T17:55:23.108Z,31.20
2023-02-12T17:57:26.356Z,27.60
2023-02-12T17:59:29.550Z,32.55
2023-02-12T18:01:32.612Z,31.48
2023-02-12T18:03:35.843Z,31.33
2023-02-12T18:05:43.646Z,32.05
2023-02-12T18:07:46.778Z,26.67
2023-02-12T18:09:49.797Z,34.47
2023-02-12T18:11:52.951Z,31.55
2023-02-12T18:13:57.494Z,33.53
2023-02-12T18:16:00.682Z,38.28
2023-02-12T18:18:03.823Z,49.67
2023-02-12T18:20:08.435Z,44.00
2023-02-12T18:22:13.247Z,31.85
2023-02-12T18:24:16.177Z,30.75
2023-02-12T18:26:19.996Z,28.33
2023-02-12T18:28:23.092Z,30.05
2023-02-12T18:30:26.354Z,29.63
2023-02-12T18:32:29.546Z,29.25
2023-02-12T18:34:33.235Z,29.25
2023-02-12T18:36:36.346Z,28.27
2023-02-12T18:38:41.877Z,29.13
2023-02-12T18:42:47.487Z,32.40
2023-02-12T18:44:52.086Z,31.08
2023-02-12T18:46:56.756Z,34.72
2023-02-12T18:49:00.201Z,27.55
2023-02-12T18:51:03.496Z,31.73
2023-02-12T18:53:06.526Z,31.67
2023-02-12T18:55:11.106Z,35.05
2023-02-12T18:57:14.068Z,34.35
2023-02-12T18:59:17.146Z,38.10
2023-02-12T19:01:21.088Z,35.42
2023-02-12T19:03:25.698Z,39.97
2023-02-12T19:05:28.575Z,49.42
2023-02-12T19:07:31.555Z,35.08
2023-02-12T19:09:34.902Z,33.13
2023-02-12T19:11:39.529Z,30.63
2023-02-12T19:13:42.428Z,36.50
2023-02-12T19:15:45.991Z,32.05
2023-02-12T19:17:49.438Z,37.25
2023-02-12T19:19:52.953Z,31.88
2023-02-12T19:21:56.072Z,29.17
2023-02-12T19:24:00.604Z,33.38
2023-02-12T19:26:05.497Z,30.73
2023-02-12T19:28:10.326Z,32.17
2023-02-12T19:30:14.087Z,29.55
2023-02-12T19:32:17.047Z,34.30
2023-02-12T19:34:22.216Z,34.25
2023-02-12T19:36:26.515Z,35.20
2023-02-12T19:38:29.512Z,26.70
2023-02-12T19:40:32.634Z,28.17
2023-02-12T19:42:35.634Z,26.38
2023-02-12T19:44:41.015Z,25.95
2023-02-12T19:46:44.370Z,30.30
2023-02-12T19:48:48.361Z,29.67
2023-02-12T19:50:51.257Z,27.77
2023-02-12T19:52:54.401Z,28.00
2023-02-12T19:54:59.113Z,32.55
2023-02-12T19:57:03.567Z,29.63
2023-02-12T19:59:06.958Z,42.33
2023-02-12T20:01:12.319Z,43.92
2023-02-12T20:03:15.238Z,71.35
2023-02-12T20:05:18.638Z,72.85
2023-02-12T20:07:21.685Z,74.15
2023-02-12T20:09:24.991Z,67.55
2023-02-12T20:11:30.513Z,82.55
2023-02-12T20:15:39.540Z,120.53
2023-02-12T20:17:44.171Z,121.60
2023-02-12T20:19:47.091Z,124.32
2023-02-12T20:21:55.499Z,130.93
2023-02-12T20:23:59.649Z,129.07
2023-02-12T20:26:05.246Z,135.60
2023-02-12T20:28:08.272Z,134.27
2023-02-12T20:30:12.284Z,116.68
2023-02-12T20:32:15.426Z,99.13
2023-02-12T20:34:20.912Z,88.97
2023-02-12T20:36:24.169Z,82.85
2023-02-12T20:38:27.158Z,97.18
2023-02-12T20:40:30.040Z,98.10
2023-02-12T20:42:33.052Z,97.28
2023-02-12T20:44:36.140Z,198.30
2023-02-12T20:46:39.838Z,269.50
2023-02-12T20:48:42.996Z,251.02
2023-02-12T20:50:47.675Z,131.43
2023-02-12T20:52:50.496Z,309.30
2023-02-12T20:54:53.526Z,193.65
2023-02-12T20:56:56.411Z,137.13
2023-02-12T20:59:00.272Z,94.72
2023-02-12T21:01:07.458Z,303.88
2023-02-12T21:03:10.384Z,232.23
2023-02-12T21:05:13.535Z,274.40
2023-02-12T21:07:18.092Z,352.17
2023-02-12T21:09:20.928Z,115.50
2023-02-12T21:11:26.572Z,158.13
2023-02-12T21:13:29.791Z,302.73
2023-02-12T21:15:32.951Z,336.67
2023-02-12T21:17:35.862Z,309.88
2023-02-12T21:19:38.789Z,295.63
2023-02-12T21:21:45.180Z,292.17
2023-02-12T21:23:50.466Z,285.73
2023-02-12T21:26:00.288Z,261.88
2023-02-12T21:28:03.175Z,278.60
2023-02-12T21:30:07.468Z,273.50
2023-02-12T21:32:10.831Z,254.00
2023-02-12T21:34:15.602Z,209.27
2023-02-12T21:36:19.991Z,237.20
2023-02-12T21:38:22.909Z,249.52
2023-02-12T21:40:27.277Z,276.10
2023-02-12T21:42:31.079Z,274.08
2023-02-12T21:44:37.617Z,253.77
2023-02-12T21:46:40.673Z,238.90
2023-02-12T21:48:44.198Z,249.35
2023-02-12T21:50:47.114Z,253.23
2023-02-12T21:52:52.787Z,223.55
2023-02-12T21:57:01.824Z,230.90
2023-02-12T21:59:05.058Z,238.68
2023-02-12T22:01:08.722Z,234.93
2023-02-12T22:03:11.622Z,235.88
2023-02-12T22:05:14.742Z,239.45
2023-02-12T22:07:17.574Z,232.55
2023-02-12T22:09:23.188Z,231.25
2023-02-12T22:11:26.062Z,239.38
2023-02-12T22:13:30.581Z,218.02
2023-02-12T22:15:33.378Z,217.00
2023-02-12T22:17:36.370Z,206.57
2023-02-12T22:19:39.820Z,201.50
2023-02-12T22:21:43.780Z,195.43
2023-02-12T22:23:46.871Z,164.27
2023-02-12T22:25:49.980Z,175.95
2023-02-12T22:27:52.858Z,180.50
2023-02-12T22:29:57.459Z,180.70
2023-02-12T22:32:00.349Z,156.35
2023-02-12T22:34:06.032Z,148.52
2023-02-12T22:38:14.701Z,139.00
2023-02-12T22:40:17.691Z,141.35
2023-02-12T22:42:20.777Z,143.30
2023-02-12T22:44:23.776Z,131.48
2023-02-12T22:46:28.761Z,113.65
2023-02-12T22:48:31.735Z,108.93
2023-02-12T22:50:36.071Z,108.20
2023-02-12T22:52:39.934Z,111.90
2023-02-12T22:54:43.137Z,124.50
2023-02-12T22:56:46.614Z,134.57
2023-02-12T22:58:54.094Z,129.73
2023-02-12T23:00:57.401Z,124.57
2023-02-12T23:03:02.733Z,108.18
2023-02-12T23:05:05.835Z,113.38
2023-02-12T23:07:08.750Z,109.22
2023-02-12T23:09:15.175Z,123.65
2023-02-12T23:11:18.455Z,150.38
2023-02-12T23:13:29.365Z,170.70
2023-02-12T23:15:32.973Z,173.60
2023-02-12T23:17:35.773Z,196.43
2023-02-12T23:19:40.274Z,180.18
2023-02-12T23:21:43.662Z,187.60
2023-02-12T23:23:46.581Z,202.40
2023-02-12T23:25:49.815Z,215.20
2023-02-12T23:27:52.760Z,215.90
2023-02-12T23:29:55.611Z,205.35
2023-02-12T23:31:58.671Z,218.50
2023-02-12T23:34:01.721Z,208.90
2023-02-12T23:36:07.461Z,204.05
2023-02-12T23:40:14.182Z,189.55
2023-02-12T23:42:17.040Z,183.38
2023-02-12T23:44:20.004Z,197.18
2023-02-12T23:46:22.964Z,219.93
2023-02-12T23:48:25.925Z,238.20
2023-02-12T23:50:28.925Z,238.20
2023-02-12T23:52:33.445Z,256.00
2023-02-12T23:54:36.669Z,247.13
2023-02-12T23:56:39.723Z,202.90
2023-02-12T23:58:42.882Z,239.27
